sensor_id;sensor_type;location;lat;lon;timestamp;pressure;altitude;pressure_sealevel;temperature;humidity
35910;BME280;22004;49.120;-0.200;2023-05-10T00:02:24;101135.09;;;13.24;76.42
35910;BME280;22004;49.120;-0.200;2023-05-10T00:04:50;101122.47;;;13.25;78.78
35910;BME280;22004;49.120;-0.200;2023-05-10T00:07:15;101131.50;;;13.53;77.18
35910;BME280;22004;49.120;-0.200;2023-05-10T00:09:42;101136.19;;;13.44;78.38
35910;BME280;22004;49.120;-0.200;2023-05-10T00:12:08;101136.50;;;13.56;77.53
35910;BME280;22004;49.120;-0.200;2023-05-10T00:14:33;101135.59;;;13.49;77.17
35910;BME280;22004;49.120;-0.200;2023-05-10T00:16:59;101133.34;;;13.67;77.73
35910;BME280;22004;49.120;-0.200;2023-05-10T00:19:24;101133.88;;;13.27;78.48
35910;BME280;22004;49.120;-0.200;2023-05-10T00:21:49;101136.50;;;13.56;78.74
35910;BME280;22004;49.120;-0.200;2023-05-10T00:24:15;101131.16;;;13.41;78.00
35910;BME280;22004;49.120;-0.200;2023-05-10T00:26:40;101135.88;;;13.76;78.01
35910;BME280;22004;49.120;-0.200;2023-05-10T00:29:07;101133.25;;;13.61;78.27
35910;BME280;22004;49.120;-0.200;2023-05-10T00:31:32;101129.44;;;13.55;77.98
35910;BME280;22004;49.120;-0.200;2023-05-10T00:33:58;101137.03;;;13.66;78.43
35910;BME280;22004;49.120;-0.200;2023-05-10T00:36:23;101126.38;;;13.58;78.28
35910;BME280;22004;49.120;-0.200;2023-05-10T00:38:48;101127.25;;;13.44;79.04
35910;BME280;22004;49.120;-0.200;2023-05-10T00:41:14;101133.25;;;13.61;78.64
35910;BME280;22004;49.120;-0.200;2023-05-10T00:43:39;101129.91;;;13.59;78.96
35910;BME280;22004;49.120;-0.200;2023-05-10T00:46:04;101131.94;;;12.91;78.64
35910;BME280;22004;49.120;-0.200;2023-05-10T00:48:30;101137.38;;;13.12;79.01
35910;BME280;22004;49.120;-0.200;2023-05-10T00:50:55;101141.78;;;13.64;78.32
35910;BME280;22004;49.120;-0.200;2023-05-10T00:53:21;101136.56;;;12.97;79.49
35910;BME280;22004;49.120;-0.200;2023-05-10T00:55:46;101145.13;;;13.30;79.23
35910;BME280;22004;49.120;-0.200;2023-05-10T00:58:12;101139.06;;;13.43;78.41
35910;BME280;22004;49.120;-0.200;2023-05-10T01:00:38;101139.47;;;13.25;79.96
35910;BME280;22004;49.120;-0.200;2023-05-10T01:03:06;101145.44;;;13.57;78.49
35910;BME280;22004;49.120;-0.200;2023-05-10T01:05:31;101144.66;;;13.27;80.11
35910;BME280;22004;49.120;-0.200;2023-05-10T01:07:57;101149.78;;;13.22;80.33
35910;BME280;22004;49.120;-0.200;2023-05-10T01:10:22;101145.31;;;13.29;79.55
35910;BME280;22004;49.120;-0.200;2023-05-10T01:12:47;101138.53;;;12.88;80.20
35910;BME280;22004;49.120;-0.200;2023-05-10T01:15:14;101146.78;;;13.31;79.54
35910;BME280;22004;49.120;-0.200;2023-05-10T01:17:42;101136.56;;;13.12;80.57
35910;BME280;22004;49.120;-0.200;2023-05-10T01:20:10;101150.22;;;13.40;79.65
35910;BME280;22004;49.120;-0.200;2023-05-10T01:22:50;101142.16;;;13.25;80.64
35910;BME280;22004;49.120;-0.200;2023-05-10T01:28:57;101152.00;;;13.48;80.29
35910;BME280;22004;49.120;-0.200;2023-05-10T01:34:20;101149.47;;;13.16;80.79
35910;BME280;22004;49.120;-0.200;2023-05-10T01:36:58;101154.31;;;12.91;81.87
35910;BME280;22004;49.120;-0.200;2023-05-10T01:42:19;101161.03;;;13.25;80.83
35910;BME280;22004;49.120;-0.200;2023-05-10T01:44:58;101156.19;;;13.35;80.35
35910;BME280;22004;49.120;-0.200;2023-05-10T01:47:37;101164.75;;;12.94;81.18
35910;BME280;22004;49.120;-0.200;2023-05-10T01:50:08;101165.22;;;13.13;80.66
35910;BME280;22004;49.120;-0.200;2023-05-10T01:52:41;101161.28;;;13.01;81.03
35910;BME280;22004;49.120;-0.200;2023-05-10T01:55:15;101163.25;;;12.92;82.09
35910;BME280;22004;49.120;-0.200;2023-05-10T01:57:43;101172.53;;;13.19;80.99
35910;BME280;22004;49.120;-0.200;2023-05-10T02:00:10;101180.44;;;12.76;81.79
35910;BME280;22004;49.120;-0.200;2023-05-10T02:02:39;101175.53;;;12.94;81.01
35910;BME280;22004;49.120;-0.200;2023-05-10T02:05:07;101177.09;;;13.18;80.85
35910;BME280;22004;49.120;-0.200;2023-05-10T02:07:35;101179.28;;;13.23;81.03
35910;BME280;22004;49.120;-0.200;2023-05-10T02:10:02;101181.34;;;13.42;80.29
35910;BME280;22004;49.120;-0.200;2023-05-10T02:12:30;101177.56;;;13.37;80.42
35910;BME280;22004;49.120;-0.200;2023-05-10T02:14:59;101175.34;;;13.26;80.82
35910;BME280;22004;49.120;-0.200;2023-05-10T02:17:27;101185.28;;;13.10;80.82
35910;BME280;22004;49.120;-0.200;2023-05-10T02:19:55;101184.28;;;13.26;80.82
35910;BME280;22004;49.120;-0.200;2023-05-10T02:22:22;101189.47;;;13.13;81.17
35910;BME280;22004;49.120;-0.200;2023-05-10T02:24:49;101191.59;;;13.32;80.87
35910;BME280;22004;49.120;-0.200;2023-05-10T02:27:17;101193.91;;;12.91;81.07
35910;BME280;22004;49.120;-0.200;2023-05-10T02:29:42;101181.75;;;12.95;81.23
35910;BME280;22004;49.120;-0.200;2023-05-10T02:32:09;101193.91;;;13.06;81.70
35910;BME280;22004;49.120;-0.200;2023-05-10T02:34:36;101193.91;;;12.91;81.44
35910;BME280;22004;49.120;-0.200;2023-05-10T02:37:02;101200.34;;;13.05;81.60
35910;BME280;22004;49.120;-0.200;2023-05-10T02:39:28;101191.50;;;12.81;81.25
35910;BME280;22004;49.120;-0.200;2023-05-10T02:41:54;101190.94;;;13.01;81.06
35910;BME280;22004;49.120;-0.200;2023-05-10T02:44:22;101201.53;;;13.02;81.46
35910;BME280;22004;49.120;-0.200;2023-05-10T02:46:48;101198.66;;;13.18;80.65
35910;BME280;22004;49.120;-0.200;2023-05-10T02:49:14;101204.44;;;13.15;81.38
35910;BME280;22004;49.120;-0.200;2023-05-10T02:51:47;101204.75;;;12.83;81.57
35910;BME280;22004;49.120;-0.200;2023-05-10T02:54:27;101197.38;;;13.00;81.09
35910;BME280;22004;49.120;-0.200;2023-05-10T02:56:57;101199.13;;;13.07;80.80
35910;BME280;22004;49.120;-0.200;2023-05-10T02:59:24;101202.47;;;12.42;81.85
35910;BME280;22004;49.120;-0.200;2023-05-10T03:01:49;101207.66;;;12.81;82.28
35910;BME280;22004;49.120;-0.200;2023-05-10T03:04:15;101207.75;;;13.03;81.55
35910;BME280;22004;49.120;-0.200;2023-05-10T03:06:41;101212.97;;;13.04;81.53
35910;BME280;22004;49.120;-0.200;2023-05-10T03:09:07;101207.56;;;12.75;81.68
35910;BME280;22004;49.120;-0.200;2023-05-10T03:16:47;101215.00;;;13.02;80.55
35910;BME280;22004;49.120;-0.200;2023-05-10T03:19:28;101216.44;;;13.13;80.74
35910;BME280;22004;49.120;-0.200;2023-05-10T03:21:58;101219.25;;;12.82;80.63
35910;BME280;22004;49.120;-0.200;2023-05-10T03:24:27;101221.81;;;12.98;81.76
35910;BME280;22004;49.120;-0.200;2023-05-10T03:26:55;101211.78;;;13.22;80.47
35910;BME280;22004;49.120;-0.200;2023-05-10T03:29:22;101219.09;;;12.83;81.45
35910;BME280;22004;49.120;-0.200;2023-05-10T03:31:50;101217.91;;;13.01;80.47
35910;BME280;22004;49.120;-0.200;2023-05-10T03:34:16;101227.81;;;12.85;81.04
35910;BME280;22004;49.120;-0.200;2023-05-10T03:36:42;101225.22;;;13.07;80.61
35910;BME280;22004;49.120;-0.200;2023-05-10T03:39:07;101224.94;;;12.87;80.75
35910;BME280;22004;49.120;-0.200;2023-05-10T03:41:33;101231.38;;;13.15;80.73
35910;BME280;22004;49.120;-0.200;2023-05-10T03:43:59;101232.03;;;12.88;81.25
35910;BME280;22004;49.120;-0.200;2023-05-10T03:46:24;101221.06;;;12.89;80.73
35910;BME280;22004;49.120;-0.200;2023-05-10T03:48:49;101232.09;;;12.80;80.97
35910;BME280;22004;49.120;-0.200;2023-05-10T03:51:15;101232.41;;;13.14;80.96
35910;BME280;22004;49.120;-0.200;2023-05-10T03:53:40;101229.69;;;12.85;80.42
35910;BME280;22004;49.120;-0.200;2023-05-10T03:56:05;101226.22;;;12.76;80.80
35910;BME280;22004;49.120;-0.200;2023-05-10T03:58:31;101233.03;;;12.49;82.23
35910;BME280;22004;49.120;-0.200;2023-05-10T04:00:56;101239.25;;;13.02;80.53
35910;BME280;22004;49.120;-0.200;2023-05-10T04:03:21;101225.78;;;12.87;80.53
35910;BME280;22004;49.120;-0.200;2023-05-10T04:05:47;101239.50;;;12.78;80.82
35910;BME280;22004;49.120;-0.200;2023-05-10T04:08:13;101240.00;;;12.96;79.99
35910;BME280;22004;49.120;-0.200;2023-05-10T04:10:39;101237.59;;;13.01;80.63
35910;BME280;22004;49.120;-0.200;2023-05-10T04:13:05;101249.50;;;13.07;80.53
35910;BME280;22004;49.120;-0.200;2023-05-10T04:15:30;101247.44;;;12.56;80.86
35910;BME280;22004;49.120;-0.200;2023-05-10T04:17:56;101245.88;;;13.00;80.49
35910;BME280;22004;49.120;-0.200;2023-05-10T04:20:21;101247.16;;;12.89;80.42
35910;BME280;22004;49.120;-0.200;2023-05-10T04:22:46;101244.00;;;12.85;79.77
35910;BME280;22004;49.120;-0.200;2023-05-10T04:25:12;101255.94;;;13.20;80.17
35910;BME280;22004;49.120;-0.200;2023-05-10T04:27:37;101251.91;;;13.02;79.64
35910;BME280;22004;49.120;-0.200;2023-05-10T04:30:03;101247.50;;;12.71;79.21
35910;BME280;22004;49.120;-0.200;2023-05-10T04:32:28;101251.06;;;12.86;79.71
35910;BME280;22004;49.120;-0.200;2023-05-10T04:34:54;101257.75;;;12.90;80.28
35910;BME280;22004;49.120;-0.200;2023-05-10T04:37:19;101264.47;;;12.94;80.29
35910;BME280;22004;49.120;-0.200;2023-05-10T04:39:46;101262.09;;;12.77;79.51
35910;BME280;22004;49.120;-0.200;2023-05-10T04:42:11;101262.44;;;12.59;80.59
35910;BME280;22004;49.120;-0.200;2023-05-10T04:44:37;101259.41;;;12.91;79.35
35910;BME280;22004;49.120;-0.200;2023-05-10T04:47:02;101266.56;;;12.84;79.81
35910;BME280;22004;49.120;-0.200;2023-05-10T04:49:28;101273.44;;;12.87;79.21
35910;BME280;22004;49.120;-0.200;2023-05-10T04:51:54;101272.13;;;12.83;80.03
35910;BME280;22004;49.120;-0.200;2023-05-10T04:54:20;101273.72;;;12.92;79.29
35910;BME280;22004;49.120;-0.200;2023-05-10T04:56:45;101276.84;;;13.04;79.15
35910;BME280;22004;49.120;-0.200;2023-05-10T04:59:10;101276.72;;;12.97;79.55
35910;BME280;22004;49.120;-0.200;2023-05-10T05:01:36;101282.81;;;12.76;79.88
35910;BME280;22004;49.120;-0.200;2023-05-10T05:04:01;101290.09;;;12.67;79.76
35910;BME280;22004;49.120;-0.200;2023-05-10T05:06:26;101293.34;;;12.86;79.77
35910;BME280;22004;49.120;-0.200;2023-05-10T05:08:52;101298.22;;;13.05;79.50
35910;BME280;22004;49.120;-0.200;2023-05-10T05:11:18;101298.00;;;13.07;79.91
35910;BME280;22004;49.120;-0.200;2023-05-10T05:13:43;101301.66;;;13.14;78.00
35910;BME280;22004;49.120;-0.200;2023-05-10T05:16:08;101301.44;;;13.01;79.41
35910;BME280;22004;49.120;-0.200;2023-05-10T05:18:34;101300.69;;;13.30;78.78
35910;BME280;22004;49.120;-0.200;2023-05-10T05:20:59;101308.81;;;13.07;78.53
35910;BME280;22004;49.120;-0.200;2023-05-10T05:23:25;101310.19;;;12.88;78.11
35910;BME280;22004;49.120;-0.200;2023-05-10T05:25:54;101309.25;;;12.96;77.17
35910;BME280;22004;49.120;-0.200;2023-05-10T05:28:20;101310.78;;;13.13;78.18
35910;BME280;22004;49.120;-0.200;2023-05-10T05:30:46;101318.34;;;13.32;78.55
35910;BME280;22004;49.120;-0.200;2023-05-10T05:33:13;101316.06;;;13.06;78.76
35910;BME280;22004;49.120;-0.200;2023-05-10T05:35:38;101322.25;;;13.30;78.36
35910;BME280;22004;49.120;-0.200;2023-05-10T05:38:04;101323.59;;;13.49;77.93
35910;BME280;22004;49.120;-0.200;2023-05-10T05:40:29;101327.88;;;13.43;77.91
35910;BME280;22004;49.120;-0.200;2023-05-10T05:42:54;101329.41;;;13.37;78.19
35910;BME280;22004;49.120;-0.200;2023-05-10T05:45:20;101336.31;;;13.55;77.78
35910;BME280;22004;49.120;-0.200;2023-05-10T05:47:46;101337.16;;;13.55;77.62
35910;BME280;22004;49.120;-0.200;2023-05-10T05:50:11;101334.06;;;13.29;77.95
35910;BME280;22004;49.120;-0.200;2023-05-10T05:52:36;101338.72;;;13.35;78.23
35910;BME280;22004;49.120;-0.200;2023-05-10T05:55:02;101340.34;;;13.59;77.00
35910;BME280;22004;49.120;-0.200;2023-05-10T05:57:27;101348.13;;;13.39;76.86
35910;BME280;22004;49.120;-0.200;2023-05-10T05:59:53;101348.44;;;13.59;76.99
35910;BME280;22004;49.120;-0.200;2023-05-10T06:02:18;101349.72;;;13.33;77.44
35910;BME280;22004;49.120;-0.200;2023-05-10T06:04:44;101351.75;;;13.90;76.36
35910;BME280;22004;49.120;-0.200;2023-05-10T06:07:09;101356.69;;;13.57;77.43
35910;BME280;22004;49.120;-0.200;2023-05-10T06:09:35;101351.41;;;13.64;76.98
35910;BME280;22004;49.120;-0.200;2023-05-10T06:12:00;101350.44;;;13.57;77.23
35910;BME280;22004;49.120;-0.200;2023-05-10T06:14:26;101359.78;;;13.84;77.11
35910;BME280;22004;49.120;-0.200;2023-05-10T06:16:52;101360.97;;;13.66;77.10
35910;BME280;22004;49.120;-0.200;2023-05-10T06:19:17;101358.75;;;13.70;77.00
35910;BME280;22004;49.120;-0.200;2023-05-10T06:21:43;101368.16;;;13.59;77.42
35910;BME280;22004;49.120;-0.200;2023-05-10T06:24:08;101360.41;;;13.56;76.84
35910;BME280;22004;49.120;-0.200;2023-05-10T06:26:33;101360.94;;;13.37;78.37
35910;BME280;22004;49.120;-0.200;2023-05-10T06:28:59;101362.00;;;13.51;77.59
35910;BME280;22004;49.120;-0.200;2023-05-10T06:31:24;101370.00;;;13.44;77.41
35910;BME280;22004;49.120;-0.200;2023-05-10T06:33:49;101367.22;;;13.14;77.65
35910;BME280;22004;49.120;-0.200;2023-05-10T06:36:15;101360.94;;;13.37;77.59
35910;BME280;22004;49.120;-0.200;2023-05-10T06:38:41;101367.59;;;13.64;77.09
35910;BME280;22004;49.120;-0.200;2023-05-10T06:41:06;101361.13;;;13.35;77.83
35910;BME280;22004;49.120;-0.200;2023-05-10T06:43:32;101368.91;;;13.53;77.44
35910;BME280;22004;49.120;-0.200;2023-05-10T06:45:57;101369.50;;;13.40;77.43
35910;BME280;22004;49.120;-0.200;2023-05-10T06:48:22;101367.88;;;13.54;77.40
35910;BME280;22004;49.120;-0.200;2023-05-10T06:50:48;101362.53;;;13.46;77.57
35910;BME280;22004;49.120;-0.200;2023-05-10T06:53:13;101363.22;;;13.63;77.23
35910;BME280;22004;49.120;-0.200;2023-05-10T06:55:39;101372.44;;;13.68;76.70
35910;BME280;22004;49.120;-0.200;2023-05-10T06:58:04;101363.75;;;13.43;75.98
35910;BME280;22004;49.120;-0.200;2023-05-10T07:00:30;101365.50;;;13.36;77.36
35910;BME280;22004;49.120;-0.200;2023-05-10T07:02:55;101374.16;;;13.47;76.35
35910;BME280;22004;49.120;-0.200;2023-05-10T07:05:21;101384.97;;;13.76;77.03
35910;BME280;22004;49.120;-0.200;2023-05-10T07:07:46;101383.66;;;13.19;76.04
35910;BME280;22004;49.120;-0.200;2023-05-10T07:10:12;101380.03;;;13.50;76.68
35910;BME280;22004;49.120;-0.200;2023-05-10T07:12:38;101384.78;;;13.48;77.13
35910;BME280;22004;49.120;-0.200;2023-05-10T07:15:04;101383.66;;;13.57;76.51
35910;BME280;22004;49.120;-0.200;2023-05-10T07:17:30;101377.72;;;13.77;76.77
35910;BME280;22004;49.120;-0.200;2023-05-10T07:19:55;101379.31;;;13.86;75.92
35910;BME280;22004;49.120;-0.200;2023-05-10T07:22:20;101387.31;;;13.64;77.28
35910;BME280;22004;49.120;-0.200;2023-05-10T07:24:46;101391.22;;;13.77;76.31
35910;BME280;22004;49.120;-0.200;2023-05-10T07:27:11;101384.72;;;13.86;76.06
35910;BME280;22004;49.120;-0.200;2023-05-10T07:29:38;101376.72;;;13.92;76.15
35910;BME280;22004;49.120;-0.200;2023-05-10T07:32:04;101390.47;;;14.12;75.68
35910;BME280;22004;49.120;-0.200;2023-05-10T07:34:29;101385.34;;;14.17;75.27
35910;BME280;22004;49.120;-0.200;2023-05-10T07:36:57;101377.53;;;14.22;74.81
35910;BME280;22004;49.120;-0.200;2023-05-10T07:39:23;101387.44;;;14.37;74.53
35910;BME280;22004;49.120;-0.200;2023-05-10T07:41:48;101382.16;;;14.29;74.49
35910;BME280;22004;49.120;-0.200;2023-05-10T07:44:13;101375.53;;;14.31;75.29
35910;BME280;22004;49.120;-0.200;2023-05-10T07:46:39;101383.81;;;14.30;74.57
35910;BME280;22004;49.120;-0.200;2023-05-10T07:49:04;101374.72;;;14.16;75.23
35910;BME280;22004;49.120;-0.200;2023-05-10T07:51:29;101384.13;;;15.42;72.12
35910;BME280;22004;49.120;-0.200;2023-05-10T07:53:55;101375.47;;;14.61;72.46
35910;BME280;22004;49.120;-0.200;2023-05-10T07:56:28;101373.22;;;14.86;72.41
35910;BME280;22004;49.120;-0.200;2023-05-10T07:59:01;101379.16;;;15.17;71.21
35910;BME280;22004;49.120;-0.200;2023-05-10T08:01:30;101382.59;;;15.61;72.15
35910;BME280;22004;49.120;-0.200;2023-05-10T08:03:56;101374.06;;;16.40;69.00
35910;BME280;22004;49.120;-0.200;2023-05-10T08:06:22;101373.94;;;16.68;69.80
35910;BME280;22004;49.120;-0.200;2023-05-10T08:08:48;101375.06;;;15.56;70.99
35910;BME280;22004;49.120;-0.200;2023-05-10T08:11:16;101385.81;;;15.43;70.88
35910;BME280;22004;49.120;-0.200;2023-05-10T08:13:42;101375.72;;;15.58;69.55
35910;BME280;22004;49.120;-0.200;2023-05-10T08:16:08;101387.56;;;15.85;70.38
35910;BME280;22004;49.120;-0.200;2023-05-10T08:18:33;101390.97;;;15.16;71.50
35910;BME280;22004;49.120;-0.200;2023-05-10T08:20:58;101383.81;;;15.30;70.87
35910;BME280;22004;49.120;-0.200;2023-05-10T08:23:24;101385.84;;;15.49;71.67
35910;BME280;22004;49.120;-0.200;2023-05-10T08:25:49;101382.59;;;15.33;71.17
35910;BME280;22004;49.120;-0.200;2023-05-10T08:28:14;101390.16;;;15.16;71.62
35910;BME280;22004;49.120;-0.200;2023-05-10T08:30:40;101390.69;;;14.83;72.14
35910;BME280;22004;49.120;-0.200;2023-05-10T08:33:05;101393.06;;;15.14;71.68
35910;BME280;22004;49.120;-0.200;2023-05-10T08:35:30;101400.06;;;15.30;70.66
35910;BME280;22004;49.120;-0.200;2023-05-10T08:37:56;101399.06;;;14.88;71.41
35910;BME280;22004;49.120;-0.200;2023-05-10T08:40:24;101396.22;;;15.18;71.35
35910;BME280;22004;49.120;-0.200;2023-05-10T08:42:57;101394.34;;;15.68;70.63
35910;BME280;22004;49.120;-0.200;2023-05-10T08:45:24;101396.97;;;15.33;71.00
35910;BME280;22004;49.120;-0.200;2023-05-10T08:47:52;101402.03;;;14.93;72.29
35910;BME280;22004;49.120;-0.200;2023-05-10T08:50:20;101400.78;;;14.74;71.52
35910;BME280;22004;49.120;-0.200;2023-05-10T08:52:47;101392.16;;;15.57;70.08
35910;BME280;22004;49.120;-0.200;2023-05-10T08:55:13;101393.16;;;15.56;69.64
35910;BME280;22004;49.120;-0.200;2023-05-10T08:57:40;101397.44;;;15.65;69.26
35910;BME280;22004;49.120;-0.200;2023-05-10T09:00:06;101406.13;;;15.32;70.85
35910;BME280;22004;49.120;-0.200;2023-05-10T09:02:32;101401.94;;;16.88;66.28
35910;BME280;22004;49.120;-0.200;2023-05-10T09:04:57;101406.56;;;16.33;68.19
35910;BME280;22004;49.120;-0.200;2023-05-10T09:07:23;101397.88;;;16.51;66.30
35910;BME280;22004;49.120;-0.200;2023-05-10T09:09:48;101410.69;;;15.88;66.80
35910;BME280;22004;49.120;-0.200;2023-05-10T09:12:14;101407.97;;;16.77;66.36
35910;BME280;22004;49.120;-0.200;2023-05-10T09:14:42;101413.31;;;16.09;67.57
35910;BME280;22004;49.120;-0.200;2023-05-10T09:17:09;101410.25;;;16.25;66.65
35910;BME280;22004;49.120;-0.200;2023-05-10T09:19:35;101419.53;;;16.03;68.03
35910;BME280;22004;49.120;-0.200;2023-05-10T09:22:00;101421.94;;;15.57;69.09
35910;BME280;22004;49.120;-0.200;2023-05-10T09:24:28;101412.56;;;16.76;66.44
35910;BME280;22004;49.120;-0.200;2023-05-10T09:26:56;101405.28;;;17.83;64.93
35910;BME280;22004;49.120;-0.200;2023-05-10T09:29:22;101409.75;;;18.29;62.31
35910;BME280;22004;49.120;-0.200;2023-05-10T09:31:49;101406.44;;;18.65;61.61
35910;BME280;22004;49.120;-0.200;2023-05-10T09:34:28;101411.81;;;17.16;64.20
35910;BME280;22004;49.120;-0.200;2023-05-10T09:36:55;101419.81;;;16.69;65.05
35910;BME280;22004;49.120;-0.200;2023-05-10T09:39:30;101413.88;;;15.98;66.56
35910;BME280;22004;49.120;-0.200;2023-05-10T09:41:57;101416.59;;;15.42;67.35
35910;BME280;22004;49.120;-0.200;2023-05-10T09:44:25;101419.31;;;15.42;67.86
35910;BME280;22004;49.120;-0.200;2023-05-10T09:46:50;101422.81;;;16.40;65.54
35910;BME280;22004;49.120;-0.200;2023-05-10T09:49:18;101424.50;;;16.41;65.05
35910;BME280;22004;49.120;-0.200;2023-05-10T09:51:43;101414.75;;;16.05;65.78
35910;BME280;22004;49.120;-0.200;2023-05-10T09:54:16;101418.72;;;16.57;64.90
35910;BME280;22004;49.120;-0.200;2023-05-10T09:56:42;101420.72;;;16.90;64.49
35910;BME280;22004;49.120;-0.200;2023-05-10T09:59:10;101420.31;;;16.86;64.05
35910;BME280;22004;49.120;-0.200;2023-05-10T10:01:37;101421.56;;;17.70;63.85
35910;BME280;22004;49.120;-0.200;2023-05-10T10:04:06;101411.38;;;17.19;63.53
35910;BME280;22004;49.120;-0.200;2023-05-10T10:06:38;101421.69;;;18.15;62.97
35910;BME280;22004;49.120;-0.200;2023-05-10T10:09:04;101423.25;;;17.44;63.95
35910;BME280;22004;49.120;-0.200;2023-05-10T10:11:29;101414.28;;;17.90;62.33
35910;BME280;22004;49.120;-0.200;2023-05-10T10:13:55;101414.22;;;18.03;63.33
35910;BME280;22004;49.120;-0.200;2023-05-10T10:16:21;101410.78;;;16.55;65.78
35910;BME280;22004;49.120;-0.200;2023-05-10T10:18:47;101418.09;;;16.07;66.80
35910;BME280;22004;49.120;-0.200;2023-05-10T10:21:13;101414.56;;;15.72;69.05
35910;BME280;22004;49.120;-0.200;2023-05-10T10:23:40;101419.28;;;15.63;69.98
35910;BME280;22004;49.120;-0.200;2023-05-10T10:26:06;101421.78;;;15.65;70.59
35910;BME280;22004;49.120;-0.200;2023-05-10T10:34:10;101428.09;;;16.07;69.00
35910;BME280;22004;49.120;-0.200;2023-05-10T10:36:46;101430.59;;;15.73;70.13
35910;BME280;22004;49.120;-0.200;2023-05-10T10:39:12;101428.53;;;15.75;69.18
35910;BME280;22004;49.120;-0.200;2023-05-10T10:41:41;101442.03;;;15.47;70.91
35910;BME280;22004;49.120;-0.200;2023-05-10T10:55:10;101422.81;;;15.64;70.28
35910;BME280;22004;49.120;-0.200;2023-05-10T10:57:45;101424.50;;;15.65;69.80
35910;BME280;22004;49.120;-0.200;2023-05-10T11:02:48;101425.44;;;16.20;69.27
35910;BME280;22004;49.120;-0.200;2023-05-10T11:05:24;101421.59;;;17.63;66.81
35910;BME280;22004;49.120;-0.200;2023-05-10T11:07:56;101420.66;;;18.67;63.46
35910;BME280;22004;49.120;-0.200;2023-05-10T11:10:22;101414.16;;;18.23;66.13
35910;BME280;22004;49.120;-0.200;2023-05-10T11:13:09;101412.63;;;17.43;65.79
35910;BME280;22004;49.120;-0.200;2023-05-10T11:15:37;101422.44;;;17.11;67.23
35910;BME280;22004;49.120;-0.200;2023-05-10T11:18:20;101418.84;;;17.10;68.62
35910;BME280;22004;49.120;-0.200;2023-05-10T11:21:04;101415.25;;;18.60;65.80
35910;BME280;22004;49.120;-0.200;2023-05-10T11:23:47;101417.63;;;18.89;64.50
35910;BME280;22004;49.120;-0.200;2023-05-10T11:26:14;101412.28;;;18.24;64.92
35910;BME280;22004;49.120;-0.200;2023-05-10T11:28:47;101419.06;;;17.09;69.53
35910;BME280;22004;49.120;-0.200;2023-05-10T11:31:14;101419.69;;;16.97;68.70
35910;BME280;22004;49.120;-0.200;2023-05-10T11:33:47;101409.03;;;17.69;66.16
35910;BME280;22004;49.120;-0.200;2023-05-10T11:36:14;101408.88;;;17.17;67.05
35910;BME280;22004;49.120;-0.200;2023-05-10T11:38:40;101403.00;;;16.87;68.00
35910;BME280;22004;49.120;-0.200;2023-05-10T11:41:08;101413.38;;;16.22;70.60
35910;BME280;22004;49.120;-0.200;2023-05-10T11:43:33;101411.38;;;15.96;73.29
35910;BME280;22004;49.120;-0.200;2023-05-10T11:45:59;101409.78;;;15.74;74.28
35910;BME280;22004;49.120;-0.200;2023-05-10T11:48:25;101422.50;;;15.52;75.72
35910;BME280;22004;49.120;-0.200;2023-05-10T11:50:50;101422.00;;;15.63;76.48
35910;BME280;22004;49.120;-0.200;2023-05-10T11:53:16;101419.31;;;15.70;74.35
35910;BME280;22004;49.120;-0.200;2023-05-10T11:55:41;101406.63;;;15.70;73.97
35910;BME280;22004;49.120;-0.200;2023-05-10T11:58:06;101419.00;;;15.86;74.01
35910;BME280;22004;49.120;-0.200;2023-05-10T12:00:32;101420.25;;;16.18;72.10
35910;BME280;22004;49.120;-0.200;2023-05-10T12:02:57;101419.97;;;16.07;73.00
35910;BME280;22004;49.120;-0.200;2023-05-10T12:05:24;101432.13;;;16.17;72.25
35910;BME280;22004;49.120;-0.200;2023-05-10T12:07:49;101437.94;;;16.21;73.04
35910;BME280;22004;49.120;-0.200;2023-05-10T12:10:14;101441.50;;;15.59;75.67
35910;BME280;22004;49.120;-0.200;2023-05-10T12:12:45;101442.19;;;15.18;75.55
35910;BME280;22004;49.120;-0.200;2023-05-10T12:15:22;101440.72;;;14.94;76.02
35910;BME280;22004;49.120;-0.200;2023-05-10T12:17:48;101445.00;;;14.67;76.35
35910;BME280;22004;49.120;-0.200;2023-05-10T12:20:13;101442.00;;;14.98;75.51
35910;BME280;22004;49.120;-0.200;2023-05-10T12:22:40;101430.84;;;14.86;75.18
35910;BME280;22004;49.120;-0.200;2023-05-10T12:25:06;101436.31;;;15.14;73.76
35910;BME280;22004;49.120;-0.200;2023-05-10T12:27:33;101429.75;;;15.23;74.01
35910;BME280;22004;49.120;-0.200;2023-05-10T12:29:59;101435.63;;;15.27;73.87
35910;BME280;22004;49.120;-0.200;2023-05-10T12:32:37;101434.63;;;16.19;71.09
35910;BME280;22004;49.120;-0.200;2023-05-10T12:35:03;101438.59;;;15.82;73.48
35910;BME280;22004;49.120;-0.200;2023-05-10T12:37:29;101442.38;;;15.87;73.75
35910;BME280;22004;49.120;-0.200;2023-05-10T12:39:54;101443.56;;;15.57;74.20
35910;BME280;22004;49.120;-0.200;2023-05-10T12:42:19;101438.41;;;14.76;76.62
35910;BME280;22004;49.120;-0.200;2023-05-10T12:44:45;101450.16;;;15.05;76.15
35910;BME280;22004;49.120;-0.200;2023-05-10T12:47:11;101445.59;;;14.84;76.57
35910;BME280;22004;49.120;-0.200;2023-05-10T12:49:36;101452.13;;;14.74;77.17
35910;BME280;22004;49.120;-0.200;2023-05-10T12:52:02;101447.75;;;14.73;78.27
35910;BME280;22004;49.120;-0.200;2023-05-10T12:54:27;101445.38;;;14.64;77.91
35910;BME280;22004;49.120;-0.200;2023-05-10T12:56:52;101443.97;;;14.68;77.52
35910;BME280;22004;49.120;-0.200;2023-05-10T12:59:18;101446.56;;;14.97;77.29
35910;BME280;22004;49.120;-0.200;2023-05-10T13:01:43;101447.25;;;15.49;75.34
35910;BME280;22004;49.120;-0.200;2023-05-10T13:04:08;101449.22;;;15.62;76.14
35910;BME280;22004;49.120;-0.200;2023-05-10T13:06:34;101451.78;;;15.42;78.63
35910;BME280;22004;49.120;-0.200;2023-05-10T13:09:00;101443.44;;;15.65;76.86
35910;BME280;22004;49.120;-0.200;2023-05-10T13:11:25;101441.72;;;15.36;76.73
35910;BME280;22004;49.120;-0.200;2023-05-10T13:13:51;101435.13;;;15.45;77.66